sensor_id;sensor_type;location;lat;lon;timestamp;temperature;humidity
1602;DHT22;794;48.592;9.634;2023-02-28T00:02:24;-1.30;1.00
1602;DHT22;794;48.592;9.634;2023-02-28T00:04:51;0.80;1.00
1602;DHT22;794;48.592;9.634;2023-02-28T00:07:26;0.10;1.00
1602;DHT22;794;48.592;9.634;2023-02-28T00:09:53;0.40;1.00
1602;DHT22;794;48.592;9.634;2023-02-28T00:12:21;-1.70;1.00
1602;DHT22;794;48.592;9.634;2023-02-28T00:14:49;1.10;1.00
1602;DHT22;794;48.592;9.634;2023-02-28T00:17:16;-1.40;1.00
1602;DHT22;794;48.592;9.634;2023-02-28T00:19:46;0.70;1.00
1602;DHT22;794;48.592;9.634;2023-02-28T00:22:14;0.60;1.00
1602;DHT22;794;48.592;9.634;2023-02-28T00:24:41;-1.60;1.00
1602;DHT22;794;48.592;9.634;2023-02-28T00:27:08;0.70;1.00
1602;DHT22;794;48.592;9.634;2023-02-28T00:29:36;-0.70;1.00
1602;DHT22;794;48.592;9.634;2023-02-28T00:32:04;-1.70;1.00
1602;DHT22;794;48.592;9.634;2023-02-28T00:34:32;-1.50;1.00
1602;DHT22;794;48.592;9.634;2023-02-28T00:37:04;0.90;1.00
1602;DHT22;794;48.592;9.634;2023-02-28T00:39:34;0.70;1.00
1602;DHT22;794;48.592;9.634;2023-02-28T00:42:01;-0.70;1.00
1602;DHT22;794;48.592;9.634;2023-02-28T00:44:28;-0.80;1.00
1602;DHT22;794;48.592;9.634;2023-02-28T00:46:57;-1.60;1.00
1602;DHT22;794;48.592;9.634;2023-02-28T00:49:24;-1.10;1.00
1602;DHT22;794;48.592;9.634;2023-02-28T00:51:52;-1.90;1.00
1602;DHT22;794;48.592;9.634;2023-02-28T00:54:19;0.10;1.00
1602;DHT22;794;48.592;9.634;2023-02-28T00:56:46;-1.50;1.00
1602;DHT22;794;48.592;9.634;2023-02-28T00:59:14;0.60;1.00
1602;DHT22;794;48.592;9.634;2023-02-28T01:01:41;-1.60;1.00
1602;DHT22;794;48.592;9.634;2023-02-28T01:04:10;-1.60;1.00
1602;DHT22;794;48.592;9.634;2023-02-28T01:06:37;0.90;1.00
1602;DHT22;794;48.592;9.634;2023-02-28T01:09:05;-1.50;1.00
1602;DHT22;794;48.592;9.634;2023-02-28T01:11:32;-1.80;1.00
1602;DHT22;794;48.592;9.634;2023-02-28T01:14:00;-1.80;1.00
1602;DHT22;794;48.592;9.634;2023-02-28T01:16:27;0.80;1.00
1602;DHT22;794;48.592;9.634;2023-02-28T01:18:54;-1.40;1.00
1602;DHT22;794;48.592;9.634;2023-02-28T01:21:23;0.50;1.00
1602;DHT22;794;48.592;9.634;2023-02-28T01:23:50;0.40;1.00
1602;DHT22;794;48.592;9.634;2023-02-28T01:26:18;-1.60;1.00
1602;DHT22;794;48.592;9.634;2023-02-28T01:28:45;1.10;1.00
1602;DHT22;794;48.592;9.634;2023-02-28T01:31:13;1.30;1.00
1602;DHT22;794;48.592;9.634;2023-02-28T01:33:40;0.90;1.00
1602;DHT22;794;48.592;9.634;2023-02-28T01:36:10;1.00;1.00
1602;DHT22;794;48.592;9.634;2023-02-28T01:38:39;0.80;1.00
1602;DHT22;794;48.592;9.634;2023-02-28T01:41:07;-1.30;1.00
1602;DHT22;794;48.592;9.634;2023-02-28T01:43:53;0.60;1.00
1602;DHT22;794;48.592;9.634;2023-02-28T01:46:21;-1.70;1.00
1602;DHT22;794;48.592;9.634;2023-02-28T01:48:53;1.20;1.00
1602;DHT22;794;48.592;9.634;2023-02-28T01:51:24;1.10;1.00
1602;DHT22;794;48.592;9.634;2023-02-28T01:53:57;-1.60;1.00
1602;DHT22;794;48.592;9.634;2023-02-28T01:56:27;-1.70;1.00
1602;DHT22;794;48.592;9.634;2023-02-28T01:58:55;-1.30;1.00
1602;DHT22;794;48.592;9.634;2023-02-28T02:01:24;0.80;1.00
1602;DHT22;794;48.592;9.634;2023-02-28T02:03:54;-1.10;1.00
1602;DHT22;794;48.592;9.634;2023-02-28T02:06:22;0.40;1.00
1602;DHT22;794;48.592;9.634;2023-02-28T02:08:49;-1.50;1.00
1602;DHT22;794;48.592;9.634;2023-02-28T02:11:21;1.00;1.00
1602;DHT22;794;48.592;9.634;2023-02-28T02:16:58;-1.50;1.00
1602;DHT22;794;48.592;9.634;2023-02-28T02:22:52;-1.70;1.00
1602;DHT22;794;48.592;9.634;2023-02-28T02:25:26;0.70;1.00
1602;DHT22;794;48.592;9.634;2023-02-28T02:28:18;0.30;1.00
1602;DHT22;794;48.592;9.634;2023-02-28T02:31:10;-1.00;1.00
1602;DHT22;794;48.592;9.634;2023-02-28T02:36:42;-1.40;1.00
1602;DHT22;794;48.592;9.634;2023-02-28T02:39:17;0.80;1.00
1602;DHT22;794;48.592;9.634;2023-02-28T02:41:48;0.80;1.00
1602;DHT22;794;48.592;9.634;2023-02-28T02:44:20;0.50;1.00
1602;DHT22;794;48.592;9.634;2023-02-28T02:46:51;-1.60;1.00
1602;DHT22;794;48.592;9.634;2023-02-28T02:49:22;-1.30;1.00
1602;DHT22;794;48.592;9.634;2023-02-28T02:51:51;-0.20;1.00
1602;DHT22;794;48.592;9.634;2023-02-28T02:54:23;-1.60;1.00
1602;DHT22;794;48.592;9.634;2023-02-28T02:56:56;0.80;1.00
1602;DHT22;794;48.592;9.634;2023-02-28T02:59:24;0.80;1.00
1602;DHT22;794;48.592;9.634;2023-02-28T03:01:56;0.50;1.00
1602;DHT22;794;48.592;9.634;2023-02-28T03:04:26;0.80;1.00
1602;DHT22;794;48.592;9.634;2023-02-28T03:06:56;-2.00;1.00
1602;DHT22;794;48.592;9.634;2023-02-28T03:09:23;0.90;1.00
1602;DHT22;794;48.592;9.634;2023-02-28T03:11:53;-1.80;1.00
1602;DHT22;794;48.592;9.634;2023-02-28T03:14:35;-1.70;1.00
1602;DHT22;794;48.592;9.634;2023-02-28T03:17:27;-1.70;1.00
1602;DHT22;794;48.592;9.634;2023-02-28T03:20:04;-1.60;1.00
1602;DHT22;794;48.592;9.634;2023-02-28T03:22:46;0.80;1.00
1602;DHT22;794;48.592;9.634;2023-02-28T03:25:26;-1.70;1.00
1602;DHT22;794;48.592;9.634;2023-02-28T03:28:00;-1.50;1.00
1602;DHT22;794;48.592;9.634;2023-02-28T03:30:35;-1.50;1.00
1602;DHT22;794;48.592;9.634;2023-02-28T03:33:06;0.70;1.00
1602;DHT22;794;48.592;9.634;2023-02-28T03:35:36;-0.40;1.00
1602;DHT22;794;48.592;9.634;2023-02-28T03:38:10;0.40;1.00
1602;DHT22;794;48.592;9.634;2023-02-28T03:40:43;0.40;1.00
1602;DHT22;794;48.592;9.634;2023-02-28T03:43:15;0.90;1.00
1602;DHT22;794;48.592;9.634;2023-02-28T03:45:44;-2.20;1.00
1602;DHT22;794;48.592;9.634;2023-02-28T03:48:15;0.70;1.00
1602;DHT22;794;48.592;9.634;2023-02-28T03:50:45;1.00;1.00
1602;DHT22;794;48.592;9.634;2023-02-28T03:53:18;0.80;1.00
1602;DHT22;794;48.592;9.634;2023-02-28T03:55:50;0.70;1.00
1602;DHT22;794;48.592;9.634;2023-02-28T03:58:24;0.90;1.00
1602;DHT22;794;48.592;9.634;2023-02-28T04:00:56;-1.70;1.00
1602;DHT22;794;48.592;9.634;2023-02-28T04:03:24;-1.50;1.00
1602;DHT22;794;48.592;9.634;2023-02-28T04:05:53;0.60;1.00
1602;DHT22;794;48.592;9.634;2023-02-28T04:08:22;-1.90;1.00
1602;DHT22;794;48.592;9.634;2023-02-28T04:10:55;-0.50;1.00
1602;DHT22;794;48.592;9.634;2023-02-28T04:13:23;-0.80;1.00
1602;DHT22;794;48.592;9.634;2023-02-28T04:15:50;-2.40;1.00
1602;DHT22;794;48.592;9.634;2023-02-28T04:18:17;0.80;1.00
1602;DHT22;794;48.592;9.634;2023-02-28T04:20:44;-2.20;1.00
1602;DHT22;794;48.592;9.634;2023-02-28T04:23:11;-0.90;1.00
1602;DHT22;794;48.592;9.634;2023-02-28T04:25:39;-2.00;1.00
1602;DHT22;794;48.592;9.634;2023-02-28T04:28:06;0.90;1.00
1602;DHT22;794;48.592;9.634;2023-02-28T04:30:33;-1.60;1.00
1602;DHT22;794;48.592;9.634;2023-02-28T04:33:00;0.80;1.00
1602;DHT22;794;48.592;9.634;2023-02-28T04:35:27;0.40;1.00
1602;DHT22;794;48.592;9.634;2023-02-28T04:37:54;-1.80;1.00
1602;DHT22;794;48.592;9.634;2023-02-28T04:40:21;0.80;1.00
1602;DHT22;794;48.592;9.634;2023-02-28T04:42:49;-1.70;1.00
1602;DHT22;794;48.592;9.634;2023-02-28T04:45:16;0.80;1.00
1602;DHT22;794;48.592;9.634;2023-02-28T04:47:43;0.60;1.00
1602;DHT22;794;48.592;9.634;2023-02-28T04:50:10;0.80;1.00
1602;DHT22;794;48.592;9.634;2023-02-28T04:52:37;0.10;1.00
1602;DHT22;794;48.592;9.634;2023-02-28T04:55:05;0.50;1.00
1602;DHT22;794;48.592;9.634;2023-02-28T04:57:32;-1.90;1.00
1602;DHT22;794;48.592;9.634;2023-02-28T05:00:01;-1.10;1.00
1602;DHT22;794;48.592;9.634;2023-02-28T05:02:30;-1.70;1.00
1602;DHT22;794;48.592;9.634;2023-02-28T05:04:57;0.40;1.00
1602;DHT22;794;48.592;9.634;2023-02-28T05:07:24;-2.10;1.00
1602;DHT22;794;48.592;9.634;2023-02-28T05:09:51;1.00;1.00
1602;DHT22;794;48.592;9.634;2023-02-28T05:12:18;-1.50;1.00
1602;DHT22;794;48.592;9.634;2023-02-28T05:14:45;-1.30;1.00
1602;DHT22;794;48.592;9.634;2023-02-28T05:17:13;0.40;1.00
1602;DHT22;794;48.592;9.634;2023-02-28T05:19:40;-2.00;1.00
1602;DHT22;794;48.592;9.634;2023-02-28T05:22:13;-1.60;1.00
1602;DHT22;794;48.592;9.634;2023-02-28T05:24:40;0.60;1.00
1602;DHT22;794;48.592;9.634;2023-02-28T05:27:08;-2.00;1.00
1602;DHT22;794;48.592;9.634;2023-02-28T05:29:35;-1.70;1.00
1602;DHT22;794;48.592;9.634;2023-02-28T05:32:08;-1.60;1.00
1602;DHT22;794;48.592;9.634;2023-02-28T05:34:37;0.50;1.00
1602;DHT22;794;48.592;9.634;2023-02-28T05:37:04;0.80;1.00
1602;DHT22;794;48.592;9.634;2023-02-28T05:39:32;-1.80;1.00
1602;DHT22;794;48.592;9.634;2023-02-28T05:41:59;0.80;1.00
1602;DHT22;794;48.592;9.634;2023-02-28T05:44:26;0.60;1.00
1602;DHT22;794;48.592;9.634;2023-02-28T05:46:53;-1.80;1.00
1602;DHT22;794;48.592;9.634;2023-02-28T05:49:20;0.20;1.00
1602;DHT22;794;48.592;9.634;2023-02-28T05:51:48;-0.30;1.00
1602;DHT22;794;48.592;9.634;2023-02-28T05:54:15;1.20;1.00
1602;DHT22;794;48.592;9.634;2023-02-28T05:56:42;0.50;1.00
1602;DHT22;794;48.592;9.634;2023-02-28T05:59:11;0.40;1.00
1602;DHT22;794;48.592;9.634;2023-02-28T06:01:39;1.00;1.00
1602;DHT22;794;48.592;9.634;2023-02-28T06:04:09;0.70;1.00
1602;DHT22;794;48.592;9.634;2023-02-28T06:06:36;0.60;1.00
1602;DHT22;794;48.592;9.634;2023-02-28T06:09:06;0.60;1.00
1602;DHT22;794;48.592;9.634;2023-02-28T06:11:33;-2.00;1.00
1602;DHT22;794;48.592;9.634;2023-02-28T06:14:01;-1.40;1.00
1602;DHT22;794;48.592;9.634;2023-02-28T06:16:28;-1.40;1.00
1602;DHT22;794;48.592;9.634;2023-02-28T06:18:57;-1.80;1.00
1602;DHT22;794;48.592;9.634;2023-02-28T06:21:24;0.60;1.00
1602;DHT22;794;48.592;9.634;2023-02-28T06:23:53;-1.90;1.00
1602;DHT22;794;48.592;9.634;2023-02-28T06:26:21;-1.70;1.00
1602;DHT22;794;48.592;9.634;2023-02-28T06:28:48;-1.70;1.00
1602;DHT22;794;48.592;9.634;2023-02-28T06:31:16;-1.90;1.00
1602;DHT22;794;48.592;9.634;2023-02-28T06:33:45;-1.60;1.00
1602;DHT22;794;48.592;9.634;2023-02-28T06:36:13;0.90;1.00
1602;DHT22;794;48.592;9.634;2023-02-28T06:38:40;-1.00;1.00
1602;DHT22;794;48.592;9.634;2023-02-28T06:41:08;-1.00;1.00
1602;DHT22;794;48.592;9.634;2023-02-28T06:43:38;-1.50;1.00
1602;DHT22;794;48.592;9.634;2023-02-28T06:46:07;-1.10;1.00
1602;DHT22;794;48.592;9.634;2023-02-28T06:48:34;0.50;1.00
1602;DHT22;794;48.592;9.634;2023-02-28T06:51:02;0.80;1.00
1602;DHT22;794;48.592;9.634;2023-02-28T06:53:30;-1.70;1.00
1602;DHT22;794;48.592;9.634;2023-02-28T06:55:57;-0.20;1.00
1602;DHT22;794;48.592;9.634;2023-02-28T06:58:24;-2.00;1.00
1602;DHT22;794;48.592;9.634;2023-02-28T07:00:52;-2.00;1.00
1602;DHT22;794;48.592;9.634;2023-02-28T07:03:19;-0.50;1.00
1602;DHT22;794;48.592;9.634;2023-02-28T07:05:47;-1.90;1.00
1602;DHT22;794;48.592;9.634;2023-02-28T07:08:14;0.80;1.00
1602;DHT22;794;48.592;9.634;2023-02-28T07:10:41;0.30;1.00
1602;DHT22;794;48.592;9.634;2023-02-28T07:13:08;-1.60;1.00
1602;DHT22;794;48.592;9.634;2023-02-28T07:15:35;-2.30;1.00
1602;DHT22;794;48.592;9.634;2023-02-28T07:18:04;-2.10;1.00
1602;DHT22;794;48.592;9.634;2023-02-28T07:20:31;-1.90;1.00
1602;DHT22;794;48.592;9.634;2023-02-28T07:22:58;0.60;1.00
1602;DHT22;794;48.592;9.634;2023-02-28T07:25:27;0.90;1.00
1602;DHT22;794;48.592;9.634;2023-02-28T07:27:55;-1.60;1.00
1602;DHT22;794;48.592;9.634;2023-02-28T07:30:22;0.30;1.00
1602;DHT22;794;48.592;9.634;2023-02-28T07:32:49;-1.90;1.00
1602;DHT22;794;48.592;9.634;2023-02-28T07:35:18;-1.70;1.00
1602;DHT22;794;48.592;9.634;2023-02-28T07:37:45;-2.00;1.00
1602;DHT22;794;48.592;9.634;2023-02-28T07:40:13;0.40;1.00
1602;DHT22;794;48.592;9.634;2023-02-28T07:42:41;-1.40;1.00
1602;DHT22;794;48.592;9.634;2023-02-28T07:45:10;-1.90;1.00
1602;DHT22;794;48.592;9.634;2023-02-28T07:47:37;-1.90;1.00
1602;DHT22;794;48.592;9.634;2023-02-28T07:50:05;0.20;1.00
1602;DHT22;794;48.592;9.634;2023-02-28T07:52:33;-1.50;1.00
1602;DHT22;794;48.592;9.634;2023-02-28T07:55:00;1.00;1.00
1602;DHT22;794;48.592;9.634;2023-02-28T07:57:27;0.50;1.00
1602;DHT22;794;48.592;9.634;2023-02-28T07:59:54;-1.40;1.00
1602;DHT22;794;48.592;9.634;2023-02-28T08:02:21;1.10;1.00
1602;DHT22;794;48.592;9.634;2023-02-28T08:04:48;-1.90;1.00
1602;DHT22;794;48.592;9.634;2023-02-28T08:07:16;-0.70;1.00
1602;DHT22;794;48.592;9.634;2023-02-28T08:09:45;-1.80;1.00
1602;DHT22;794;48.592;9.634;2023-02-28T08:12:12;0.90;1.00
1602;DHT22;794;48.592;9.634;2023-02-28T08:14:39;1.20;1.00
1602;DHT22;794;48.592;9.634;2023-02-28T08:17:06;1.10;1.00
1602;DHT22;794;48.592;9.634;2023-02-28T08:19:33;0.90;1.00
1602;DHT22;794;48.592;9.634;2023-02-28T08:22:00;-1.60;1.00
1602;DHT22;794;48.592;9.634;2023-02-28T08:24:27;0.80;1.00
1602;DHT22;794;48.592;9.634;2023-02-28T08:26:56;0.90;1.00
1602;DHT22;794;48.592;9.634;2023-02-28T08:29:23;0.10;1.00
1602;DHT22;794;48.592;9.634;2023-02-28T08:31:50;-1.70;1.00
1602;DHT22;794;48.592;9.634;2023-02-28T08:34:17;-1.90;1.00
1602;DHT22;794;48.592;9.634;2023-02-28T08:36:44;-1.70;1.00
1602;DHT22;794;48.592;9.634;2023-02-28T08:39:11;0.80;1.00
1602;DHT22;794;48.592;9.634;2023-02-28T08:41:38;0.90;1.00
1602;DHT22;794;48.592;9.634;2023-02-28T08:44:07;0.80;1.00
1602;DHT22;794;48.592;9.634;2023-02-28T08:46:34;-1.40;1.00
1602;DHT22;794;48.592;9.634;2023-02-28T08:49:00;1.40;1.00
1602;DHT22;794;48.592;9.634;2023-02-28T08:51:28;1.10;1.00
1602;DHT22;794;48.592;9.634;2023-02-28T08:53:59;-1.10;1.00
1602;DHT22;794;48.592;9.634;2023-02-28T08:56:27;-0.10;1.00
1602;DHT22;794;48.592;9.634;2023-02-28T08:58:56;1.40;1.00
1602;DHT22;794;48.592;9.634;2023-02-28T09:01:27;1.60;1.00
1602;DHT22;794;48.592;9.634;2023-02-28T09:03:55;-1.20;1.00
1602;DHT22;794;48.592;9.634;2023-02-28T09:06:25;-1.20;1.00
1602;DHT22;794;48.592;9.634;2023-02-28T09:08:52;1.70;1.00
1602;DHT22;794;48.592;9.634;2023-02-28T09:11:19;0.70;1.00
1602;DHT22;794;48.592;9.634;2023-02-28T09:13:46;-0.70;1.00
1602;DHT22;794;48.592;9.634;2023-02-28T09:16:15;2.10;1.00
1602;DHT22;794;48.592;9.634;2023-02-28T09:18:43;-0.40;1.00
1602;DHT22;794;48.592;9.634;2023-02-28T09:21:12;-0.70;1.00
1602;DHT22;794;48.592;9.634;2023-02-28T09:23:40;1.40;1.00
1602;DHT22;794;48.592;9.634;2023-02-28T09:26:11;-1.00;1.00
1602;DHT22;794;48.592;9.634;2023-02-28T09:28:39;0.30;1.00
1602;DHT22;794;48.592;9.634;2023-02-28T09:31:06;-2.50;1.00
1602;DHT22;794;48.592;9.634;2023-02-28T09:33:33;1.80;1.00
1602;DHT22;794;48.592;9.634;2023-02-28T09:36:03;0.80;1.00
1602;DHT22;794;48.592;9.634;2023-02-28T09:38:30;-0.60;1.00
1602;DHT22;794;48.592;9.634;2023-02-28T09:40:59;-0.80;1.00
1602;DHT22;794;48.592;9.634;2023-02-28T09:43:30;-0.80;1.00
1602;DHT22;794;48.592;9.634;2023-02-28T09:46:02;1.50;1.00
1602;DHT22;794;48.592;9.634;2023-02-28T09:48:35;1.20;1.00
1602;DHT22;794;48.592;9.634;2023-02-28T09:51:08;1.30;1.00
1602;DHT22;794;48.592;9.634;2023-02-28T09:53:39;-0.20;1.00
1602;DHT22;794;48.592;9.634;2023-02-28T09:56:08;0.20;1.00
1602;DHT22;794;48.592;9.634;2023-02-28T09:58:41;1.40;1.00
1602;DHT22;794;48.592;9.634;2023-02-28T10:01:17;-0.10;1.00
1602;DHT22;794;48.592;9.634;2023-02-28T10:03:50;-0.20;1.00
1602;DHT22;794;48.592;9.634;2023-02-28T10:06:28;1.80;1.00
1602;DHT22;794;48.592;9.634;2023-02-28T10:09:00;1.80;1.00
1602;DHT22;794;48.592;9.634;2023-02-28T10:11:29;1.30;1.00
1602;DHT22;794;48.592;9.634;2023-02-28T10:14:01;0.00;1.00
1602;DHT22;794;48.592;9.634;2023-02-28T10:16:33;2.30;1.00
1602;DHT22;794;48.592;9.634;2023-02-28T10:19:04;1.70;1.00
1602;DHT22;794;48.592;9.634;2023-02-28T10:21:38;2.20;1.00
1602;DHT22;794;48.592;9.634;2023-02-28T10:24:19;0.10;1.00
1602;DHT22;794;48.592;9.634;2023-02-28T10:26:52;1.80;1.00
1602;DHT22;794;48.592;9.634;2023-02-28T10:29:23;1.80;1.00
1602;DHT22;794;48.592;9.634;2023-02-28T10:31:50;0.80;1.00
1602;DHT22;794;48.592;9.634;2023-02-28T10:34:17;2.10;1.00
1602;DHT22;794;48.592;9.634;2023-02-28T10:36:46;2.80;1.00
1602;DHT22;794;48.592;9.634;2023-02-28T10:39:35;2.30;1.00
1602;DHT22;794;48.592;9.634;2023-02-28T10:42:03;2.00;1.00
1602;DHT22;794;48.592;9.634;2023-02-28T10:44:30;2.20;1.00
1602;DHT22;794;48.592;9.634;2023-02-28T10:47:02;4.10;1.00
1602;DHT22;794;48.592;9.634;2023-02-28T10:49:29;4.40;1.00
1602;DHT22;794;48.592;9.634;2023-02-28T10:51:59;2.90;1.00
1602;DHT22;794;48.592;9.634;2023-02-28T10:54:29;3.60;1.00
1602;DHT22;794;48.592;9.634;2023-02-28T10:57:09;3.20;1.00
1602;DHT22;794;48.592;9.634;2023-02-28T10:59:41;0.70;1.00
1602;DHT22;794;48.592;9.634;2023-02-28T11:02:29;2.80;1.00
1602;DHT22;794;48.592;9.634;2023-02-28T11:04:56;1.00;1.00
1602;DHT22;794;48.592;9.634;2023-02-28T11:07:26;1.20;1.00
1602;DHT22;794;48.592;9.634;2023-02-28T11:09:54;1.10;1.00
1602;DHT22;794;48.592;9.634;2023-02-28T11:12:24;1.10;1.00
1602;DHT22;794;48.592;9.634;2023-02-28T11:14:55;1.80;1.00
1602;DHT22;794;48.592;9.634;2023-02-28T11:17:24;2.70;1.00
1602;DHT22;794;48.592;9.634;2023-02-28T11:19:54;1.50;1.00
1602;DHT22;794;48.592;9.634;2023-02-28T11:22:26;1.60;1.00
1602;DHT22;794;48.592;9.634;2023-02-28T11:25:16;3.70;1.00
1602;DHT22;794;48.592;9.634;2023-02-28T11:27:48;2.20;1.00
1602;DHT22;794;48.592;9.634;2023-02-28T11:30:39;2.80;1.00
1602;DHT22;794;48.592;9.634;2023-02-28T11:33:22;3.40;1.00
1602;DHT22;794;48.592;9.634;2023-02-28T11:35:50;2.10;1.00
1602;DHT22;794;48.592;9.634;2023-02-28T11:38:19;3.00;1.00
1602;DHT22;794;48.592;9.634;2023-02-28T11:40:51;4.10;1.00
1602;DHT22;794;48.592;9.634;2023-02-28T11:43:28;4.60;1.00
1602;DHT22;794;48.592;9.634;2023-02-28T11:46:16;3.20;1.00
1602;DHT22;794;48.592;9.634;2023-02-28T11:48:51;2.40;1.00
1602;DHT22;794;48.592;9.634;2023-02-28T11:51:23;3.90;1.00
1602;DHT22;794;48.592;9.634;2023-02-28T11:54:19;4.00;1.00
1602;DHT22;794;48.592;9.634;2023-02-28T11:56:57;2.10;1.00
1602;DHT22;794;48.592;9.634;2023-02-28T11:59:39;2.20;1.00
1602;DHT22;794;48.592;9.634;2023-02-28T12:02:22;2.30;1.00
1602;DHT22;794;48.592;9.634;2023-02-28T12:05:01;0.40;1.00
1602;DHT22;794;48.592;9.634;2023-02-28T12:07:44;2.00;1.00
1602;DHT22;794;48.592;9.634;2023-02-28T12:10:20;3.90;1.00
1602;DHT22;794;48.592;9.634;2023-02-28T12:13:00;3.60;1.00
1602;DHT22;794;48.592;9.634;2023-02-28T12:15:48;2.90;1.00
1602;DHT22;794;48.592;9.634;2023-02-28T12:18:27;4.50;1.00
1602;DHT22;794;48.592;9.634;2023-02-28T12:21:07;3.00;1.00
1602;DHT22;794;48.592;9.634;2023-02-28T12:23:58;2.60;1.00
1602;DHT22;794;48.592;9.634;2023-02-28T12:26:34;2.60;1.00
1602;DHT22;794;48.592;9.634;2023-02-28T12:29:10;3.00;1.00
1602;DHT22;794;48.592;9.634;2023-02-28T12:31:41;2.80;1.00
1602;DHT22;794;48.592;9.634;2023-02-28T12:34:16;2.90;1.00
1602;DHT22;794;48.592;9.634;2023-02-28T12:36:46;2.80;1.00
1602;DHT22;794;48.592;9.634;2023-02-28T12:39:18;2.60;1.00
1602;DHT22;794;48.592;9.634;2023-02-28T12:41:50;3.20;1.00
1602;DHT22;794;48.592;9.634;2023-02-28T12:44:24;3.30;1.00
1602;DHT22;794;48.592;9.634;2023-02-28T12:46:56;3.40;1.00
1602;DHT22;794;48.592;9.634;2023-02-28T12:49:29;2.80;1.00
1602;DHT22;794;48.592;9.634;2023-02-28T12:51:59;2.70;1.00
1602;DHT22;794;48.592;9.634;2023-02-28T12:54:29;3.20;1.00
1602;DHT22;794;48.592;9.634;2023-02-28T12:57:06;4.30;1.00
1602;DHT22;794;48.592;9.634;2023-02-28T12:59:39;3.30;1.00
1602;DHT22;794;48.592;9.634;2023-02-28T13:02:50;4.80;1.00
1602;DHT22;794;48.592;9.634;2023-02-28T13:05:32;2.70;1.00
1602;DHT22;794;48.592;9.634;2023-02-28T13:08:21;3.40;1.00
1602;DHT22;794;48.592;9.634;2023-02-28T13:10:51;3.40;1.00
1602;DHT22;794;48.592;9.634;2023-02-28T13:13:24;3.10;1.00
1602;DHT22;794;48.592;9.634;2023-02-28T13:16:03;3.40;1.00
1602;DHT22;794;48.592;9.634;2023-02-28T13:18:36;3.50;1.00
1602;DHT22;794;48.592;9.634;2023-02-28T13:21:06;3.50;1.00
1602;DHT22;794;48.592;9.634;2023-02-28T13:23:41;3.60;1.00
1602;DHT22;794;48.592;9.634;2023-02-28T13:26:28;5.10;1.00
1602;DHT22;794;48.592;9.634;2023-02-28T13:29:28;3.70;1.00
1602;DHT22;794;48.592;9.634;2023-02-28T13:32:32;5.00;1.00
1602;DHT22;794;48.592;9.634;2023-02-28T13:44:06;3.70;1.00
1602;DHT22;794;48.592;9.634;2023-02-28T13:46:37;4.00;1.00
1602;DHT22;794;48.592;9.634;2023-02-28T13:49:25;5.10;1.00
1602;DHT22;794;48.592;9.634;2023-02-28T13:52:02;4.20;1.00
1602;DHT22;794;48.592;9.634;2023-02-28T13:54:39;3.90;1.00
1602;DHT22;794;48.592;9.634;2023-02-28T13:57:22;3.60;1.00
1602;DHT22;794;48.592;9.634;2023-02-28T14:00:04;3.40;1.00
1602;DHT22;794;48.592;9.634;2023-02-28T14:05:37;3.30;1.00
1602;DHT22;794;48.592;9.634;2023-02-28T14:08:08;3.70;1.00
1602;DHT22;794;48.592;9.634;2023-02-28T14:10:42;3.50;1.00
1602;DHT22;794;48.592;9.634;2023-02-28T14:15:57;3.30;1.00
1602;DHT22;794;48.592;9.634;2023-02-28T14:18:29;4.00;1.00
1602;DHT22;794;48.592;9.634;2023-02-28T14:21:11;3.60;1.00
1602;DHT22;794;48.592;9.634;2023-02-28T14:24:08;3.80;1.00
1602;DHT22;794;48.592;9.634;2023-02-28T14:27:00;4.20;1.00
1602;DHT22;794;48.592;9.634;2023-02-28T14:29:56;3.60;1.00
1602;DHT22;794;48.592;9.634;2023-02-28T14:32:30;1.90;1.00
1602;DHT22;794;48.592;9.634;2023-02-28T14:35:13;4.50;1.00
1602;DHT22;794;48.592;9.634;2023-02-28T14:37:43;4.00;1.00
1602;DHT22;794;48.592;9.634;2023-02-28T14:40:16;4.10;1.00
1602;DHT22;794;48.592;9.634;2023-02-28T14:42:48;4.20;1.00
1602;DHT22;794;48.592;9.634;2023-02-28T14:45:22;3.80;1.00
1602;DHT22;794;48.592;9.634;2023-02-28T14:47:50;4.00;1.00
1602;DHT22;794;48.592;9.634;2023-02-28T14:50:20;4.20;1.00
1602;DHT22;794;48.592;9.634;2023-02-28T14:52:50;4.10;1.00
1602;DHT22;794;48.592;9.634;2023-02-28T14:55:19;4.30;1.00
1602;DHT22;794;48.592;9.634;2023-02-28T14:57:53;4.40;1.00
1602;DHT22;794;48.592;9.634;2023-02-28T15:00:23;4.40;1.00
1602;DHT22;794;48.592;9.634;2023-02-28T15:02:50;4.10;1.00
1602;DHT22;794;48.592;9.634;2023-02-28T15:05:31;5.20;1.00
1602;DHT22;794;48.592;9.634;2023-02-28T15:08:04;4.20;1.00
1602;DHT22;794;48.592;9.634;2023-02-28T15:10:31;4.10;1.00
1602;DHT22;794;48.592;9.634;2023-02-28T15:13:01;4.40;1.00
1602;DHT22;794;48.592;9.634;2023-02-28T15:15:43;4.20;1.00
1602;DHT22;794;48.592;9.634;2023-02-28T15:18:16;4.20;1.00
1602;DHT22;794;48.592;9.634;2023-02-28T15:20:50;3.80;1.00
1602;DHT22;794;48.592;9.634;2023-02-28T15:23:18;3.30;1.00
1602;DHT22;794;48.592;9.634;2023-02-28T15:25:47;3.80;1.00
1602;DHT22;794;48.592;9.634;2023-02-28T15:28:16;3.50;1.00
1602;DHT22;794;48.592;9.634;2023-02-28T15:30:56;3.70;1.00
1602;DHT22;794;48.592;9.634;2023-02-28T15:33:25;3.90;1.00
1602;DHT22;794;48.592;9.634;2023-02-28T15:36:10;1.90;1.00
1602;DHT22;794;48.592;9.634;2023-02-28T15:38:38;3.90;1.00
1602;DHT22;794;48.592;9.634;2023-02-28T15:41:05;3.80;1.00
1602;DHT22;794;48.592;9.634;2023-02-28T15:43:35;3.80;1.00
1602;DHT22;794;48.592;9.634;2023-02-28T15:46:04;4.10;1.00
1602;DHT22;794;48.592;9.634;2023-02-28T15:48:35;3.80;1.00
1602;DHT22;794;48.592;9.634;2023-02-28T15:51:08;3.60;1.00
1602;DHT22;794;48.592;9.634;2023-02-28T15:53:37;3.90;1.00
1602;DHT22;794;48.592;9.634;2023-02-28T15:56:17;3.30;1.00
1602;DHT22;794;48.592;9.634;2023-02-28T15:59:04;4.50;1.00
1602;DHT22;794;48.592;9.634;2023-02-28T16:01:33;4.20;1.00
1602;DHT22;794;48.592;9.634;2023-02-28T16:04:03;3.60;1.00
1602;DHT22;794;48.592;9.634;2023-02-28T16:06:38;3.60;1.00
1602;DHT22;794;48.592;9.634;2023-02-28T16:09:08;3.80;1.00
1602;DHT22;794;48.592;9.634;2023-02-28T16:11:38;3.30;1.00
1602;DHT22;794;48.592;9.634;2023-02-28T16:14:08;1.10;1.00
1602;DHT22;794;48.592;9.634;2023-02-28T16:16:42;3.00;1.00
1602;DHT22;794;48.592;9.634;2023-02-28T16:19:10;3.30;1.00
1602;DHT22;794;48.592;9.634;2023-02-28T16:21:39;4.20;1.00
1602;DHT22;794;48.592;9.634;2023-02-28T16:24:06;3.20;1.00
1602;DHT22;794;48.592;9.634;2023-02-28T16:26:33;3.80;1.00
1602;DHT22;794;48.592;9.634;2023-02-28T16:29:03;3.80;1.00
1602;DHT22;794;48.592;9.634;2023-02-28T16:31:30;4.00;1.00
1602;DHT22;794;48.592;9.634;2023-02-28T16:33:59;3.00;1.00
1602;DHT22;794;48.592;9.634;2023-02-28T16:36:28;3.10;1.00
1602;DHT22;794;48.592;9.634;2023-02-28T16:38:57;2.90;1.00
1602;DHT22;794;48.592;9.634;2023-02-28T16:41:26;1.60;1.00
1602;DHT22;794;48.592;9.634;2023-02-28T16:43:55;3.10;1.00
1602;DHT22;794;48.592;9.634;2023-02-28T16:46:25;2.90;1.00
1602;DHT22;794;48.592;9.634;2023-02-28T16:48:53;2.90;1.00
1602;DHT22;794;48.592;9.634;2023-02-28T16:51:20;2.60;1.00
1602;DHT22;794;48.592;9.634;2023-02-28T16:53:47;3.80;1.00
1602;DHT22;794;48.592;9.634;2023-02-28T16:56:18;3.40;1.00
1602;DHT22;794;48.592;9.634;2023-02-28T16:58:45;4.60;1.00
1602;DHT22;794;48.592;9.634;2023-02-28T17:01:13;2.90;1.00
1602;DHT22;794;48.592;9.634;2023-02-28T17:03:40;3.20;1.00
1602;DHT22;794;48.592;9.634;2023-02-28T17:06:16;2.60;1.00
1602;DHT22;794;48.592;9.634;2023-02-28T17:08:43;4.30;1.00
1602;DHT22;794;48.592;9.634;2023-02-28T17:11:10;2.10;1.00
1602;DHT22;794;48.592;9.634;2023-02-28T17:13:39;1.90;1.00
1602;DHT22;794;48.592;9.634;2023-02-28T17:16:07;1.90;1.00
1602;DHT22;794;48.592;9.634;2023-02-28T17:18:35;1.90;1.00
1602;DHT22;794;48.592;9.634;2023-02-28T17:21:09;1.70;1.00
1602;DHT22;794;48.592;9.634;2023-02-28T17:23:39;1.30;1.00
1602;DHT22;794;48.592;9.634;2023-02-28T17:26:06;1.60;1.00
1602;DHT22;794;48.592;9.634;2023-02-28T17:28:33;2.00;1.00
1602;DHT22;794;48.592;9.634;2023-02-28T17:31:01;3.40;1.00
1602;DHT22;794;48.592;9.634;2023-02-28T17:33:28;1.00;1.00
1602;DHT22;794;48.592;9.634;2023-02-28T17:35:55;1.20;1.00
1602;DHT22;794;48.592;9.634;2023-02-28T17:38:22;2.80;1.00